createdAt,value
2022-09-16T00:00:28.535Z,97559.47
2022-09-16T00:02:56.789Z,97564.50
2022-09-16T00:05:23.465Z,97564.09
2022-09-16T00:07:50.638Z,97563.66
2022-09-16T00:10:17.451Z,97566.47
2022-09-16T00:12:44.257Z,97566.34
2022-09-16T00:15:11.082Z,97544.31
2022-09-16T00:17:37.702Z,97551.78
2022-09-16T00:20:05.618Z,97561.78
2022-09-16T00:22:33.095Z,97566.22
2022-09-16T00:24:59.825Z,97571.59
2022-09-16T00:27:26.630Z,97576.63
2022-09-16T00:29:53.209Z,97566.91
2022-09-16T00:32:19.860Z,97570.56
2022-09-16T00:34:46.618Z,97571.13
2022-09-16T00:37:13.346Z,97578.25
2022-09-16T00:39:39.928Z,97574.94
2022-09-16T00:42:06.854Z,97573.66
2022-09-16T00:44:52.149Z,97581.31
2022-09-16T00:47:30.612Z,97581.75
2022-09-16T00:50:03.396Z,97577.25
2022-09-16T00:52:31.213Z,97579.75
2022-09-16T00:55:00.846Z,97575.44
2022-09-16T00:57:27.531Z,97575.03
2022-09-16T00:59:55.625Z,97580.19
2022-09-16T01:02:23.917Z,97577.09
2022-09-16T01:05:02.521Z,97581.88
2022-09-16T01:07:42.003Z,97578.66
2022-09-16T01:10:09.608Z,97575.84
2022-09-16T01:12:36.899Z,97577.97
2022-09-16T01:15:05.752Z,97578.34
2022-09-16T01:18:00.078Z,97574.66
2022-09-16T01:20:42.403Z,97573.06
2022-09-16T01:23:47.018Z,97577.28
2022-09-16T01:26:22.618Z,97571.59
2022-09-16T01:29:11.176Z,97576.69
2022-09-16T01:31:52.937Z,97575.75
2022-09-16T01:34:26.482Z,97577.09
2022-09-16T01:36:59.113Z,97580.63
2022-09-16T01:39:48.179Z,97591.47
2022-09-16T01:42:38.289Z,97580.06
2022-09-16T01:45:45.513Z,97585.47
2022-09-16T01:48:36.709Z,97584.53
2022-09-16T01:51:25.956Z,97581.19
2022-09-16T01:54:18.989Z,97579.06
2022-09-16T01:57:01.917Z,97573.66
2022-09-16T02:00:00.992Z,97581.00
2022-09-16T02:02:35.812Z,97577.88
2022-09-16T02:05:08.680Z,97527.25
2022-09-16T02:07:39.669Z,97536.34
2022-09-16T02:10:18.450Z,97568.84
2022-09-16T02:12:46.841Z,97561.59
2022-09-16T02:15:17.804Z,97565.97
2022-09-16T02:17:52.564Z,97578.13
2022-09-16T02:20:26.106Z,97570.09
2022-09-16T02:22:59.941Z,97550.75
2022-09-16T02:25:29.240Z,97545.38
2022-09-16T02:27:59.863Z,97559.34
2022-09-16T02:30:26.609Z,97570.81
2022-09-16T02:33:00.623Z,97560.97
2022-09-16T02:35:28.373Z,97505.94
2022-09-16T02:38:02.944Z,97509.19
2022-09-16T02:40:37.999Z,97560.97
2022-09-16T02:43:04.872Z,97563.03
2022-09-16T02:45:46.587Z,97556.66
2022-09-16T02:48:18.503Z,97545.16
2022-09-16T02:50:53.573Z,97551.09
2022-09-16T02:53:36.590Z,97516.59
2022-09-16T02:56:12.001Z,97558.78
2022-09-16T02:58:38.763Z,97566.75
2022-09-16T03:01:06.150Z,97540.53
2022-09-16T03:03:33.121Z,97550.50
2022-09-16T03:06:08.828Z,97560.84
2022-09-16T03:08:37.115Z,97560.03
2022-09-16T03:11:15.895Z,97565.53
2022-09-16T03:14:08.521Z,97565.69
2022-09-16T03:16:53.782Z,97558.38
2022-09-16T03:19:44.659Z,97555.69
2022-09-16T03:22:17.087Z,97561.78
2022-09-16T03:25:15.743Z,97543.38
2022-09-16T03:28:12.218Z,97550.59
2022-09-16T03:31:02.866Z,97389.53
2022-09-16T03:33:38.842Z,97552.34
2022-09-16T03:36:09.527Z,97553.69
2022-09-16T03:38:38.928Z,97554.16
2022-09-16T03:41:07.257Z,97551.66
2022-09-16T03:43:34.078Z,97534.44
2022-09-16T03:46:03.812Z,97554.81
2022-09-16T03:48:30.500Z,97551.56
2022-09-16T03:50:57.630Z,97558.69
2022-09-16T03:53:24.387Z,97540.28
2022-09-16T03:55:50.996Z,97553.59
2022-09-16T03:58:17.690Z,97528.00
2022-09-16T04:00:48.785Z,97545.81
2022-09-16T04:03:15.449Z,97544.19
2022-09-16T04:05:42.204Z,97521.69
2022-09-16T04:08:08.924Z,97540.53
2022-09-16T04:10:35.576Z,97540.78
2022-09-16T04:13:02.278Z,97541.44
2022-09-16T04:15:28.914Z,97548.78
2022-09-16T04:17:55.702Z,97537.56
2022-09-16T04:20:22.368Z,97543.25
2022-09-16T04:22:49.050Z,97533.66
2022-09-16T04:25:15.643Z,97531.34
2022-09-16T04:27:42.468Z,97529.03
2022-09-16T04:30:09.875Z,97543.28
2022-09-16T04:32:36.522Z,97544.59
2022-09-16T04:35:03.579Z,97528.94
2022-09-16T04:37:30.901Z,97532.22
2022-09-16T04:40:00.979Z,97524.13
2022-09-16T04:42:30.627Z,97541.38
2022-09-16T04:44:57.259Z,97542.44
2022-09-16T04:47:23.903Z,97538.03
2022-09-16T04:49:53.585Z,97543.72
2022-09-16T04:52:20.251Z,97538.66
2022-09-16T04:54:46.943Z,97544.38
2022-09-16T04:57:13.849Z,97550.25
2022-09-16T04:59:40.424Z,97547.19
2022-09-16T05:02:07.289Z,97532.41
2022-09-16T05:04:33.937Z,97539.66
2022-09-16T05:07:00.569Z,97544.25
2022-09-16T05:09:27.138Z,97544.22
2022-09-16T05:11:54.158Z,97531.91
2022-09-16T05:14:20.722Z,97524.44
2022-09-16T05:16:47.486Z,97544.06
2022-09-16T05:19:14.628Z,97539.94
2022-09-16T05:21:42.188Z,97504.06
2022-09-16T05:24:10.712Z,97514.34
2022-09-16T05:26:40.521Z,97541.34
2022-09-16T05:29:10.668Z,97544.63
2022-09-16T05:31:39.603Z,97545.84
2022-09-16T05:34:17.715Z,97496.25
2022-09-16T05:36:46.009Z,97537.63
2022-09-16T05:39:28.195Z,97547.53
2022-09-16T05:41:57.721Z,97545.50
2022-09-16T05:44:25.362Z,97554.81
2022-09-16T05:46:53.435Z,97547.91
2022-09-16T05:49:20.220Z,97548.53
2022-09-16T05:51:48.393Z,97531.94
2022-09-16T05:54:15.317Z,97545.47
2022-09-16T05:56:42.069Z,97551.16
2022-09-16T05:59:12.021Z,97556.00
2022-09-16T06:01:39.499Z,97551.59
2022-09-16T06:04:10.607Z,97558.25
2022-09-16T06:06:42.295Z,97552.59
2022-09-16T06:09:10.478Z,97548.53
2022-09-16T06:11:39.735Z,97512.53
2022-09-16T06:14:07.564Z,97555.28
2022-09-16T06:16:35.227Z,97548.84
2022-09-16T06:19:04.803Z,97565.25
2022-09-16T06:21:31.426Z,97572.00
2022-09-16T06:23:58.400Z,97563.78
2022-09-16T06:26:26.746Z,97564.41
2022-09-16T06:28:54.086Z,97558.19
2022-09-16T06:31:24.570Z,97555.97
2022-09-16T06:33:52.293Z,97546.25
2022-09-16T06:36:22.176Z,97560.78
2022-09-16T06:38:49.946Z,97556.94
2022-09-16T06:41:18.264Z,97556.38
2022-09-16T06:43:45.919Z,97555.13
2022-09-16T06:46:19.915Z,97548.59
2022-09-16T06:48:48.830Z,97497.97
2022-09-16T06:51:22.415Z,97530.69
2022-09-16T06:53:50.196Z,97541.66
2022-09-16T06:56:19.168Z,97538.63
2022-09-16T06:58:49.854Z,97555.03
2022-09-16T07:01:23.246Z,97541.97
2022-09-16T07:03:52.300Z,97549.47
2022-09-16T07:06:20.718Z,97518.44
2022-09-16T07:08:48.082Z,97540.94
2022-09-16T07:11:20.281Z,97539.97
2022-09-16T07:13:48.974Z,97534.81
2022-09-16T07:16:18.613Z,97544.25
2022-09-16T07:18:46.013Z,97549.09
2022-09-16T07:21:21.207Z,97546.50
2022-09-16T07:23:47.899Z,97546.84
2022-09-16T07:26:20.158Z,97546.25
2022-09-16T07:28:49.038Z,97548.13
2022-09-16T07:31:19.412Z,97548.38
2022-09-16T07:33:49.263Z,97547.38
2022-09-16T07:36:24.867Z,97551.31
2022-09-16T07:38:52.626Z,97547.97
2022-09-16T07:41:22.171Z,97557.66
2022-09-16T07:43:50.226Z,97565.69
2022-09-16T07:46:18.484Z,97558.25
2022-09-16T07:48:48.982Z,97564.56
2022-09-16T07:51:21.506Z,97561.84
2022-09-16T07:53:49.102Z,97560.59
2022-09-16T07:56:19.425Z,97562.06
2022-09-16T07:58:47.362Z,97548.50
2022-09-16T08:01:16.192Z,97554.25
2022-09-16T08:03:44.665Z,97555.66
2022-09-16T08:06:14.771Z,97545.94
2022-09-16T08:08:42.152Z,97549.09
2022-09-16T08:11:09.429Z,97519.75
2022-09-16T08:13:37.782Z,97530.28
2022-09-16T08:16:10.822Z,97553.25
2022-09-16T08:18:38.103Z,97543.25
2022-09-16T08:21:06.941Z,97555.69
2022-09-16T08:23:35.015Z,97561.94
2022-09-16T08:26:02.193Z,97516.28
2022-09-16T08:28:39.879Z,97517.91
2022-09-16T08:31:17.730Z,97559.34
2022-09-16T08:33:44.822Z,97538.56
2022-09-16T08:36:17.802Z,97512.25
2022-09-16T08:38:45.205Z,97561.63
2022-09-16T08:41:46.108Z,97559.56
2022-09-16T08:44:42.210Z,97559.38
2022-09-16T08:47:42.979Z,97566.47
2022-09-16T08:50:26.014Z,97559.47
2022-09-16T08:52:56.950Z,97555.44
2022-09-16T08:55:32.794Z,97563.50
2022-09-16T08:58:10.901Z,97555.47
2022-09-16T09:00:39.269Z,97557.78
2022-09-16T09:03:34.937Z,97564.84
2022-09-16T09:06:06.589Z,97562.28
2022-09-16T09:08:45.373Z,97565.53
2022-09-16T09:11:30.619Z,97553.63
2022-09-16T09:14:22.178Z,97552.94
2022-09-16T09:17:18.823Z,97549.91
2022-09-16T09:20:09.912Z,97546.72
2022-09-16T09:22:36.877Z,97554.09
2022-09-16T09:25:06.339Z,97547.50
2022-09-16T09:27:48.239Z,97549.16
2022-09-16T09:30:23.746Z,97553.69
2022-09-16T09:33:41.324Z,97541.56
2022-09-16T09:36:32.715Z,97554.66
2022-09-16T09:39:13.601Z,97552.09
2022-09-16T09:41:46.574Z,97541.69
2022-09-16T09:44:38.037Z,97545.47
2022-09-16T09:47:12.517Z,97540.16
2022-09-16T09:49:46.603Z,97539.09
2022-09-16T09:52:32.492Z,97527.78
2022-09-16T09:55:16.163Z,97521.09
2022-09-16T09:58:11.139Z,97519.94
2022-09-16T10:00:38.385Z,97496.75
2022-09-16T10:03:17.245Z,97516.59
2022-09-16T10:05:46.041Z,97513.84
2022-09-16T10:08:29.948Z,97514.97
2022-09-16T10:11:02.039Z,97503.78
2022-09-16T10:13:30.249Z,97490.66
2022-09-16T10:16:14.717Z,97513.94
2022-09-16T10:18:42.351Z,97510.34
2022-09-16T10:21:15.360Z,97524.59
2022-09-16T10:23:54.120Z,97534.94
2022-09-16T10:26:26.957Z,97543.41
2022-09-16T10:29:16.092Z,97544.56
2022-09-16T10:31:43.546Z,97500.88
2022-09-16T10:34:33.569Z,97546.94
2022-09-16T10:37:10.349Z,97531.13
2022-09-16T10:39:39.482Z,97549.22
2022-09-16T10:42:17.204Z,97513.78
2022-09-16T10:44:44.095Z,97550.03
2022-09-16T10:47:21.923Z,97543.41
2022-09-16T10:49:54.581Z,97525.84
2022-09-16T10:52:27.385Z,97538.44
2022-09-16T10:54:54.966Z,97528.66
2022-09-16T10:57:27.413Z,97521.47
2022-09-16T11:00:17.467Z,97515.97
2022-09-16T11:03:18.417Z,97516.81
2022-09-16T11:05:56.348Z,97510.84
2022-09-16T11:08:43.998Z,97520.50
2022-09-16T11:11:28.632Z,97513.38
2022-09-16T11:13:55.239Z,97509.50
2022-09-16T11:16:27.834Z,97521.09
2022-09-16T11:19:12.690Z,97518.16
2022-09-16T11:21:59.194Z,97514.28
2022-09-16T11:24:47.979Z,97521.47
2022-09-16T11:27:45.332Z,97507.06
2022-09-16T11:30:14.550Z,97504.56
2022-09-16T11:33:02.585Z,97500.84
2022-09-16T11:35:40.126Z,97501.56
2022-09-16T11:38:27.896Z,97497.91
2022-09-16T11:41:09.120Z,97492.19
2022-09-16T11:43:59.904Z,97496.56
2022-09-16T11:46:50.204Z,97490.44
2022-09-16T11:49:38.308Z,97492.38
2022-09-16T11:52:13.777Z,97493.66
2022-09-16T11:55:17.215Z,97493.75
2022-09-16T11:57:57.080Z,97464.78
2022-09-16T12:00:23.985Z,97489.88
2022-09-16T12:03:25.986Z,97482.28
2022-09-16T12:05:59.176Z,97491.50
2022-09-16T12:08:54.073Z,97487.44
2022-09-16T12:11:46.486Z,97490.91
2022-09-16T12:14:25.909Z,97486.41
2022-09-16T12:16:58.903Z,97485.41
2022-09-16T12:19:41.066Z,97484.09
2022-09-16T12:22:22.132Z,97475.81
2022-09-16T12:24:57.795Z,97477.88
2022-09-16T12:27:33.946Z,97483.19
2022-09-16T12:30:03.934Z,97458.19
2022-09-16T12:32:52.147Z,97477.72
2022-09-16T12:36:08.536Z,97465.13
2022-09-16T12:38:35.462Z,97467.41
2022-09-16T12:41:11.199Z,97464.06
2022-09-16T12:44:33.077Z,97472.72
2022-09-16T12:47:38.842Z,97462.25
2022-09-16T12:50:14.253Z,97460.66
2022-09-16T12:53:02.477Z,97454.41
2022-09-16T12:55:35.223Z,97452.50
2022-09-16T12:58:04.660Z,97445.94
2022-09-16T13:00:34.317Z,97441.16
2022-09-16T13:03:10.441Z,97443.41
2022-09-16T13:05:39.412Z,97450.84
2022-09-16T13:08:25.434Z,97442.88
2022-09-16T13:11:19.303Z,97438.09
2022-09-16T13:13:52.522Z,97438.94
2022-09-16T13:16:38.076Z,97436.38
2022-09-16T13:19:30.058Z,97430.72
2022-09-16T13:22:39.276Z,97438.75
2022-09-16T13:25:25.270Z,97436.38
2022-09-16T13:28:33.473Z,97423.25
2022-09-16T13:31:12.526Z,97424.00
2022-09-16T13:33:45.016Z,97430.41
2022-09-16T13:36:16.882Z,97438.03
2022-09-16T13:38:48.213Z,97417.28
2022-09-16T13:41:28.683Z,97421.81
2022-09-16T13:43:55.557Z,97415.88
2022-09-16T13:46:38.154Z,97400.94
2022-09-16T13:49:15.651Z,97421.69
2022-09-16T13:51:45.104Z,97421.81
2022-09-16T13:55:06.300Z,97423.66
2022-09-16T13:57:45.879Z,97416.78
2022-09-16T14:00:12.703Z,97414.16
2022-09-16T14:02:57.875Z,97418.22
2022-09-16T14:05:30.634Z,97408.19
2022-09-16T14:08:22.117Z,97411.69
2022-09-16T14:11:07.283Z,97410.38
2022-09-16T14:13:51.060Z,97403.59
2022-09-16T14:16:24.772Z,97399.53
2022-09-16T14:19:25.230Z,97395.06
2022-09-16T14:22:27.705Z,97391.16
2022-09-16T14:25:05.978Z,97394.94
2022-09-16T14:27:40.204Z,97396.56
2022-09-16T14:30:18.587Z,97377.41
2022-09-16T14:32:47.425Z,97399.97
2022-09-16T14:35:21.537Z,97400.66
2022-09-16T14:37:57.231Z,97391.50
2022-09-16T14:40:25.759Z,97403.78
2022-09-16T14:42:58.248Z,97404.19
2022-09-16T14:45:25.117Z,97406.88
2022-09-16T14:47:54.031Z,97362.78
2022-09-16T14:50:27.191Z,97407.28
2022-09-16T14:52:55.508Z,97401.63
2022-09-16T14:55:26.124Z,97401.63
2022-09-16T14:57:53.010Z,97407.00
2022-09-16T15:00:30.521Z,97404.91
2022-09-16T15:03:20.380Z,97400.50
2022-09-16T15:05:47.576Z,97392.38
2022-09-16T15:08:19.929Z,97397.84
2022-09-16T15:10:52.533Z,97402.69
2022-09-16T15:13:22.830Z,97403.66
2022-09-16T15:15:54.195Z,97409.44
2022-09-16T15:18:32.136Z,97408.78
2022-09-16T15:21:28.176Z,97411.28
2022-09-16T15:23:58.625Z,97412.63
2022-09-16T15:26:40.544Z,97409.19
2022-09-16T15:29:24.937Z,97412.91
2022-09-16T15:31:52.114Z,97396.47
2022-09-16T15:34:20.363Z,97414.44
2022-09-16T15:36:49.652Z,97410.16
2022-09-16T15:39:33.980Z,97409.34
2022-09-16T15:42:21.133Z,97420.41
2022-09-16T15:44:50.241Z,97410.69
2022-09-16T15:47:28.700Z,97413.53
2022-09-16T15:50:07.272Z,97412.66
2022-09-16T15:52:49.765Z,97412.28
2022-09-16T15:55:40.541Z,97410.31
2022-09-16T15:58:22.043Z,97410.69
2022-09-16T16:01:12.935Z,97405.28
2022-09-16T16:03:45.264Z,97404.16
2022-09-16T16:06:12.752Z,97410.63
2022-09-16T16:08:44.603Z,97414.59
2022-09-16T16:11:22.009Z,97408.03
2022-09-16T16:13:49.569Z,97392.47
2022-09-16T16:16:17.276Z,97404.72
2022-09-16T16:18:45.602Z,97406.50
2022-09-16T16:21:14.542Z,97413.91
2022-09-16T16:23:41.552Z,97408.88
2022-09-16T16:26:10.306Z,97406.34
2022-09-16T16:28:37.499Z,97401.19
2022-09-16T16:31:08.093Z,97406.13
2022-09-16T16:33:34.834Z,97407.25
2022-09-16T16:36:01.614Z,97416.16
2022-09-16T16:38:28.246Z,97414.53
2022-09-16T16:40:54.807Z,97415.91
2022-09-16T16:43:21.984Z,97419.00
2022-09-16T16:45:58.041Z,97423.13
2022-09-16T16:48:27.735Z,97380.69
2022-09-16T16:50:59.795Z,97418.59
2022-09-16T16:53:27.958Z,97384.38
2022-09-16T16:55:55.156Z,97423.69
2022-09-16T16:58:21.921Z,97425.78
2022-09-16T17:00:48.509Z,97411.16
2022-09-16T17:03:16.199Z,97433.81
2022-09-16T17:05:42.904Z,97435.09
2022-09-16T17:08:09.593Z,97437.28
2022-09-16T17:10:36.417Z,97434.88
2022-09-16T17:13:03.008Z,97420.44
2022-09-16T17:15:29.687Z,97439.06
2022-09-16T17:17:56.505Z,97389.97
2022-09-16T17:20:23.101Z,97437.91
2022-09-16T17:22:49.751Z,97435.34
2022-09-16T17:25:16.436Z,97434.44
2022-09-16T17:27:43.027Z,97435.78
2022-09-16T17:30:10.099Z,97436.81
2022-09-16T17:32:37.059Z,97445.03
2022-09-16T17:35:03.809Z,97450.03
2022-09-16T17:37:30.495Z,97450.03
2022-09-16T17:39:57.179Z,97456.47
2022-09-16T17:42:23.963Z,97436.47
2022-09-16T17:44:50.605Z,97446.34
2022-09-16T17:47:17.283Z,97464.25
2022-09-16T17:49:43.856Z,97452.13
2022-09-16T17:52:10.671Z,97462.59
2022-09-16T17:54:37.439Z,97460.41
2022-09-16T17:57:04.193Z,97463.63
2022-09-16T17:59:30.860Z,97421.00
2022-09-16T18:01:57.657Z,97465.88
2022-09-16T18:04:24.365Z,97472.22
2022-09-16T18:06:50.986Z,97474.00
2022-09-16T18:09:17.644Z,97485.97
2022-09-16T18:11:44.571Z,97456.53
2022-09-16T18:14:12.923Z,97485.53
2022-09-16T18:16:40.465Z,97489.91
2022-09-16T18:19:08.817Z,97487.34
2022-09-16T18:21:35.757Z,97443.50
2022-09-16T18:24:04.430Z,97498.94
2022-09-16T18:26:32.203Z,97496.03
2022-09-16T18:29:16.671Z,97447.97
2022-09-16T18:31:46.529Z,97493.31
2022-09-16T18:34:14.288Z,97475.06
2022-09-16T18:36:41.445Z,97517.31
2022-09-16T18:39:12.444Z,97511.66
2022-09-16T18:41:40.715Z,97507.25
2022-09-16T18:44:17.707Z,97498.16
2022-09-16T18:46:44.438Z,97508.97
2022-09-16T18:49:12.957Z,97500.56
2022-09-16T18:51:41.980Z,97513.22
2022-09-16T18:54:13.204Z,97512.28
2022-09-16T18:56:40.987Z,97513.47
2022-09-16T18:59:22.134Z,97513.66
2022-09-16T19:01:52.111Z,97518.63
2022-09-16T19:04:21.627Z,97484.47
2022-09-16T19:06:51.930Z,97525.25
2022-09-16T19:09:20.704Z,97522.28
2022-09-16T19:11:48.273Z,97521.94
2022-09-16T19:14:14.991Z,97517.16
2022-09-16T19:16:43.761Z,97519.19
2022-09-16T19:19:13.160Z,97519.19
2022-09-16T19:21:40.289Z,97504.88
2022-09-16T19:24:10.858Z,97522.78
2022-09-16T19:26:37.896Z,97503.72
2022-09-16T19:29:06.507Z,97489.13
2022-09-16T19:31:36.053Z,97517.72
2022-09-16T19:34:04.789Z,97485.16
2022-09-16T19:36:32.880Z,97520.34
2022-09-16T19:38:59.922Z,97492.19
2022-09-16T19:41:30.024Z,97514.13
2022-09-16T19:43:59.479Z,97513.53
2022-09-16T19:46:27.468Z,97519.22
2022-09-16T19:48:55.512Z,97523.03
2022-09-16T19:51:23.880Z,97510.28
2022-09-16T19:53:53.099Z,97519.84
2022-09-16T19:56:26.269Z,97522.25
2022-09-16T19:58:54.101Z,97510.69
2022-09-16T20:01:32.402Z,97510.94
2022-09-16T20:03:59.971Z,97515.56
2022-09-16T20:06:44.537Z,97456.81
2022-09-16T20:09:12.886Z,97501.41
2022-09-16T20:11:43.784Z,97497.75
2022-09-16T20:14:16.935Z,97507.09
2022-09-16T20:16:43.784Z,97513.94
2022-09-16T20:19:13.446Z,97496.97
2022-09-16T20:21:41.401Z,97474.25
2022-09-16T20:24:14.955Z,97504.03
2022-09-16T20:26:41.784Z,97506.88
2022-09-16T20:29:08.538Z,97480.75
2022-09-16T20:31:36.695Z,97518.44
2022-09-16T20:34:04.995Z,97518.84
2022-09-16T20:36:35.750Z,97516.41
2022-09-16T20:39:03.352Z,97490.41
2022-09-16T20:41:32.094Z,97524.47
2022-09-16T20:43:59.507Z,97481.13
2022-09-16T20:46:29.072Z,97516.41
2022-09-16T20:48:58.147Z,97525.13
2022-09-16T21:08:43.915Z,97535.88
2022-09-16T21:11:14.459Z,97500.78
2022-09-16T21:13:46.852Z,97536.66
2022-09-16T21:16:15.692Z,97395.41
2022-09-16T21:18:43.053Z,97492.66
2022-09-16T21:21:13.993Z,97533.00
2022-09-16T21:23:41.217Z,97376.50
2022-09-16T21:26:16.379Z,97532.59
2022-09-16T21:28:44.825Z,97504.03
2022-09-16T21:31:13.799Z,97507.44
2022-09-16T21:33:42.579Z,97498.94
2022-09-16T21:36:10.723Z,97507.06
2022-09-16T21:38:38.026Z,97500.16
2022-09-16T21:41:06.929Z,97464.03
2022-09-16T21:43:38.832Z,97547.19
2022-09-16T21:46:10.000Z,97545.59
2022-09-16T21:48:36.840Z,97501.97
2022-09-16T21:51:06.151Z,97545.56
2022-09-16T21:53:35.135Z,97521.06
2022-09-16T21:56:03.399Z,97554.84
2022-09-16T21:58:30.150Z,97479.03
2022-09-16T22:01:19.524Z,97543.47
2022-09-16T22:03:52.535Z,97547.56
2022-09-16T22:06:19.450Z,97475.88
2022-09-16T22:08:49.149Z,97465.59
2022-09-16T22:11:18.620Z,97493.34
2022-09-16T22:13:46.117Z,97433.28
2022-09-16T22:16:24.533Z,97512.69
2022-09-16T22:18:51.279Z,97414.53
2022-09-16T22:21:17.958Z,97495.88
2022-09-16T22:23:44.611Z,97479.22
2022-09-16T22:26:13.753Z,97464.81
2022-09-16T22:28:41.150Z,97532.94
2022-09-16T22:31:17.096Z,97520.41
2022-09-16T22:33:45.567Z,97535.56
2022-09-16T22:36:14.799Z,97442.09
2022-09-16T22:38:46.091Z,97496.28
2022-09-16T22:41:13.740Z,97479.28
2022-09-16T22:43:45.541Z,97520.03
2022-09-16T22:46:14.872Z,97527.53
2022-09-16T22:48:42.761Z,97507.06
2022-09-16T22:51:11.732Z,97509.09
2022-09-16T22:53:38.847Z,97507.69
2022-09-16T22:56:09.586Z,97438.56
2022-09-16T22:58:36.990Z,97507.66
2022-09-16T23:01:10.355Z,97506.84
2022-09-16T23:03:37.895Z,97321.84
2022-09-16T23:06:08.854Z,97494.91
2022-09-16T23:08:37.638Z,97495.91
2022-09-16T23:11:06.479Z,97457.81
2022-09-16T23:13:34.558Z,97477.88
2022-09-16T23:16:04.438Z,97496.97
2022-09-16T23:18:32.911Z,97495.31
2022-09-16T23:21:02.197Z,97468.16
2022-09-16T23:23:30.149Z,97425.22
2022-09-16T23:25:57.310Z,97489.66
2022-09-16T23:28:23.990Z,97447.09
2022-09-16T23:30:50.717Z,97386.72
2022-09-16T23:33:17.459Z,97417.13
2022-09-16T23:35:50.321Z,97488.84
2022-09-16T23:38:17.137Z,97349.47
2022-09-16T23:40:43.799Z,97292.59
2022-09-16T23:43:10.540Z,97448.69
2022-09-16T23:45:37.624Z,97474.63
2022-09-16T23:48:05.330Z,97495.13
2022-09-16T23:50:31.928Z,97450.69
2022-09-16T23:52:59.189Z,97510.28
2022-09-16T23:55:26.583Z,97458.00
2022-09-16T23:57:58.208Z,97493.28
